Time,TemperatureF,DewpointF,PressureIn,WindDirection,WindDirectionDegrees,WindSpeedMPH,WindSpeedGustMPH,Humidity,HourlyPrecipIn,Conditions,Clouds,dailyrainin,SolarRadiationWatts/m^2,SoftwareType,DateUTC
2013-07-26 00:23:00,73.0,69.0,-100.00,North,354,0.0,4.0,87,0.00,,,0.00,0.000000,,2013-07-26 04:23:00,
2013-07-26 00:32:00,73.0,69.0,-100.00,North,354,0.0,4.0,87,0.00,,,0.00,0.000000,,2013-07-26 04:32:00,
2013-07-26 00:42:00,73.0,69.0,-100.00,North,354,0.0,4.0,87,0.00,,,0.00,0.000000,,2013-07-26 04:42:00,
2013-07-26 00:53:00,73.0,69.0,-100.00,North,354,0.0,4.0,87,0.00,,,0.00,0.000000,,2013-07-26 04:53:00,
2013-07-26 01:22:00,72.0,68.0,-100.00,North,9,0.0,0.0,88,0.00,,,0.00,0.000000,,2013-07-26 05:22:00,
2013-07-26 01:32:00,72.0,68.0,-100.00,North,9,0.0,0.0,88,0.00,,,0.00,0.000000,,2013-07-26 05:32:00,
2013-07-26 01:43:00,72.0,68.0,-100.00,North,9,0.0,0.0,88,0.00,,,0.00,0.000000,,2013-07-26 05:43:00,
2013-07-26 01:52:00,72.0,68.0,-100.00,North,9,0.0,0.0,88,0.00,,,0.00,0.000000,,2013-07-26 05:52:00,
2013-07-26 02:22:00,72.0,69.0,-100.00,NE,36,0.0,4.0,89,0.00,,,0.00,0.000000,,2013-07-26 06:22:00,
2013-07-26 02:33:00,72.0,69.0,-100.00,NE,36,0.0,4.0,89,0.00,,,0.00,0.000000,,2013-07-26 06:33:00,
2013-07-26 02:43:00,72.0,69.0,-100.00,NE,36,0.0,4.0,89,0.00,,,0.00,0.000000,,2013-07-26 06:43:00,
2013-07-26 02:52:00,72.0,69.0,-100.00,NE,36,0.0,4.0,89,0.00,,,0.00,0.000000,,2013-07-26 06:52:00,
2013-07-26 03:22:00,72.0,69.0,-100.00,North,356,0.0,3.0,90,0.00,,,0.00,0.000000,,2013-07-26 07:22:00,
2013-07-26 03:32:00,72.0,69.0,-100.00,North,356,0.0,3.0,90,0.00,,,0.00,0.000000,,2013-07-26 07:32:00,
2013-07-26 03:43:00,72.0,69.0,-100.00,North,356,0.0,3.0,90,0.00,,,0.00,0.000000,,2013-07-26 07:43:00,
2013-07-26 03:53:00,72.0,69.0,-100.00,North,356,0.0,3.0,90,0.00,,,0.00,0.000000,,2013-07-26 07:53:00,
2013-07-26 04:22:00,73.0,70.0,-100.00,NNE,27,3.0,5.0,91,0.00,,,0.00,0.000000,,2013-07-26 08:22:00,
2013-07-26 04:32:00,73.0,70.0,-100.00,NNE,27,3.0,5.0,91,0.00,,,0.00,0.000000,,2013-07-26 08:32:00,
2013-07-26 04:44:00,73.0,70.0,-100.00,NNE,27,3.0,5.0,91,0.00,,,0.00,0.000000,,2013-07-26 08:44:00,
2013-07-26 04:52:00,73.0,70.0,-100.00,NNE,27,3.0,5.0,91,0.00,,,0.00,0.000000,,2013-07-26 08:52:00,
2013-07-26 05:22:00,73.0,70.0,-100.00,NE,35,1.0,6.0,91,0.00,,,0.00,0.000000,,2013-07-26 09:22:00,
2013-07-26 05:32:00,73.0,70.0,-100.00,NE,35,1.0,6.0,91,0.00,,,0.00,0.000000,,2013-07-26 09:32:00,
2013-07-26 05:43:00,73.0,70.0,-100.00,NE,35,1.0,6.0,91,0.00,,,0.00,0.000000,,2013-07-26 09:43:00,
2013-07-26 05:52:00,73.0,70.0,-100.00,NE,35,1.0,6.0,91,0.00,,,0.00,0.000000,,2013-07-26 09:52:00,
2013-07-26 06:22:00,73.0,71.0,-100.00,NNE,31,5.0,9.0,92,0.00,,,0.00,0.000000,,2013-07-26 10:22:00,
2013-07-26 06:33:00,73.0,71.0,-100.00,NNE,31,5.0,9.0,92,0.00,,,0.00,0.000000,,2013-07-26 10:33:00,
2013-07-26 06:42:00,73.0,71.0,-100.00,NNE,31,5.0,9.0,92,0.00,,,0.00,0.000000,,2013-07-26 10:42:00,
2013-07-26 06:52:00,73.0,71.0,-100.00,NNE,31,5.0,9.0,92,0.00,,,0.00,0.000000,,2013-07-26 10:52:00,
2013-07-26 07:22:00,73.0,71.0,-100.00,NE,35,3.0,6.0,93,0.00,,,0.00,8.000000,,2013-07-26 11:22:00,
2013-07-26 07:32:00,73.0,71.0,-100.00,NE,35,3.0,6.0,93,0.00,,,0.00,8.000000,,2013-07-26 11:32:00,
2013-07-26 07:43:00,73.0,71.0,-100.00,NE,35,3.0,6.0,93,0.00,,,0.00,8.000000,,2013-07-26 11:43:00,
2013-07-26 07:52:00,73.0,71.0,-100.00,NE,35,3.0,6.0,93,0.00,,,0.00,8.000000,,2013-07-26 11:52:00,
2013-07-26 08:22:00,76.0,74.0,-100.00,NE,45,4.0,7.0,93,0.00,,,0.00,83.000000,,2013-07-26 12:22:00,
2013-07-26 08:33:00,76.0,74.0,-100.00,NE,45,4.0,7.0,93,0.00,,,0.00,83.000000,,2013-07-26 12:33:00,
2013-07-26 08:43:00,76.0,74.0,-100.00,NE,45,4.0,7.0,93,0.00,,,0.00,83.000000,,2013-07-26 12:43:00,
2013-07-26 08:53:00,76.0,74.0,-100.00,NE,45,4.0,7.0,93,0.00,,,0.00,83.000000,,2013-07-26 12:53:00,
2013-07-26 09:43:00,80.0,77.0,-100.00,ENE,62,4.0,9.0,90,0.00,,,0.00,246.000000,,2013-07-26 13:43:00,
2013-07-26 09:53:00,80.0,77.0,-100.00,ENE,62,4.0,9.0,90,0.00,,,0.00,246.000000,,2013-07-26 13:53:00,
2013-07-26 10:22:00,83.0,78.0,-100.00,ENE,57,5.0,10.0,85,0.00,,,0.00,476.000000,,2013-07-26 14:22:00,
2013-07-26 10:32:00,83.0,78.0,-100.00,ENE,57,5.0,10.0,85,0.00,,,0.00,476.000000,,2013-07-26 14:32:00,
2013-07-26 10:43:00,83.0,78.0,-100.00,ENE,57,5.0,10.0,85,0.00,,,0.00,476.000000,,2013-07-26 14:43:00,
2013-07-26 10:53:00,83.0,78.0,-100.00,ENE,57,5.0,10.0,85,0.00,,,0.00,476.000000,,2013-07-26 14:53:00,
2013-07-26 11:22:00,86.0,78.0,-100.00,ENE,75,5.0,11.0,78,0.00,,,0.00,614.000000,,2013-07-26 15:22:00,
2013-07-26 11:33:00,86.0,78.0,-100.00,ENE,75,5.0,11.0,78,0.00,,,0.00,614.000000,,2013-07-26 15:33:00,
2013-07-26 11:43:00,86.0,78.0,-100.00,ENE,75,5.0,11.0,78,0.00,,,0.00,614.000000,,2013-07-26 15:43:00,
2013-07-26 11:53:00,86.0,78.0,-100.00,ENE,75,5.0,11.0,78,0.00,,,0.00,614.000000,,2013-07-26 15:53:00,
2013-07-26 12:43:00,85.0,76.0,-100.00,SE,133,4.0,8.0,74,0.00,,,0.00,542.000000,,2013-07-26 16:43:00,
2013-07-26 12:54:00,85.0,76.0,-100.00,SE,133,4.0,8.0,74,0.00,,,0.00,542.000000,,2013-07-26 16:54:00,
2013-07-26 13:22:00,89.0,77.0,-100.00,ESE,113,6.0,12.0,69,0.00,,,0.00,925.000000,,2013-07-26 17:22:00,
2013-07-26 13:33:00,89.0,77.0,-100.00,ESE,113,6.0,12.0,69,0.00,,,0.00,925.000000,,2013-07-26 17:33:00,
2013-07-26 13:43:00,89.0,77.0,-100.00,ESE,113,6.0,12.0,69,0.00,,,0.00,925.000000,,2013-07-26 17:43:00,
2013-07-26 13:53:00,89.0,77.0,-100.00,ESE,113,6.0,12.0,69,0.00,,,0.00,925.000000,,2013-07-26 17:53:00,
2013-07-26 14:23:00,82.0,75.0,-100.00,ENE,59,3.0,10.0,80,0.05,,,0.05,569.000000,,2013-07-26 18:23:00,
2013-07-26 14:33:00,82.0,75.0,-100.00,ENE,59,3.0,10.0,80,0.05,,,0.05,569.000000,,2013-07-26 18:33:00,
2013-07-26 14:44:00,82.0,75.0,-100.00,ENE,59,3.0,10.0,80,0.05,,,0.05,569.000000,,2013-07-26 18:44:00,
2013-07-26 14:52:00,82.0,75.0,-100.00,ENE,59,3.0,10.0,80,0.05,,,0.05,569.000000,,2013-07-26 18:52:00,
2013-07-26 15:22:00,88.0,78.0,-100.00,East,93,5.0,10.0,72,0.00,,,0.05,901.000000,,2013-07-26 19:22:00,
2013-07-26 15:32:00,88.0,78.0,-100.00,East,93,5.0,10.0,72,0.00,,,0.05,901.000000,,2013-07-26 19:32:00,
2013-07-26 15:43:00,88.0,78.0,-100.00,East,93,5.0,10.0,72,0.00,,,0.05,901.000000,,2013-07-26 19:43:00,
2013-07-26 15:52:00,88.0,78.0,-100.00,East,93,5.0,10.0,72,0.00,,,0.05,901.000000,,2013-07-26 19:52:00,
2013-07-26 16:22:00,85.0,76.0,-100.00,ENE,72,4.0,13.0,75,0.00,,,0.05,585.000000,,2013-07-26 20:22:00,
2013-07-26 16:32:00,85.0,76.0,-100.00,ENE,72,4.0,13.0,75,0.00,,,0.05,585.000000,,2013-07-26 20:32:00,
2013-07-26 16:43:00,85.0,76.0,-100.00,ENE,72,4.0,13.0,75,0.00,,,0.05,585.000000,,2013-07-26 20:43:00,
2013-07-26 16:53:00,85.0,76.0,-100.00,ENE,72,4.0,13.0,75,0.00,,,0.05,585.000000,,2013-07-26 20:53:00,
2013-07-26 17:22:00,85.0,75.0,-100.00,ESE,118,4.0,10.0,73,0.00,,,0.05,576.000000,,2013-07-26 21:22:00,
2013-07-26 17:32:00,85.0,75.0,-100.00,ESE,118,4.0,10.0,73,0.00,,,0.05,576.000000,,2013-07-26 21:32:00,
2013-07-26 17:43:00,85.0,75.0,-100.00,ESE,118,4.0,10.0,73,0.00,,,0.05,576.000000,,2013-07-26 21:43:00,
2013-07-26 17:53:00,85.0,75.0,-100.00,ESE,118,4.0,10.0,73,0.00,,,0.05,576.000000,,2013-07-26 21:53:00,
2013-07-26 18:22:00,85.0,75.0,-100.00,SE,127,5.0,10.0,73,0.00,,,0.05,234.000000,,2013-07-26 22:22:00,
2013-07-26 18:33:00,85.0,75.0,-100.00,SE,127,5.0,10.0,73,0.00,,,0.05,234.000000,,2013-07-26 22:33:00,
2013-07-26 18:43:00,85.0,75.0,-100.00,SE,127,5.0,10.0,73,0.00,,,0.05,234.000000,,2013-07-26 22:43:00,
2013-07-26 18:53:00,85.0,75.0,-100.00,SE,127,5.0,10.0,73,0.00,,,0.05,234.000000,,2013-07-26 22:53:00,
2013-07-26 19:22:00,85.0,75.0,-100.00,ESE,118,5.0,9.0,71,0.00,,,0.05,255.000000,,2013-07-26 23:22:00,
2013-07-26 19:32:00,85.0,75.0,-100.00,ESE,118,5.0,9.0,71,0.00,,,0.05,255.000000,,2013-07-26 23:32:00,
2013-07-26 19:43:00,85.0,75.0,-100.00,ESE,118,5.0,9.0,71,0.00,,,0.05,255.000000,,2013-07-26 23:43:00,
2013-07-26 19:53:00,85.0,75.0,-100.00,ESE,118,5.0,9.0,71,0.00,,,0.05,255.000000,,2013-07-26 23:53:00,
2013-07-26 20:22:00,81.0,73.0,-100.00,East,100,3.0,10.0,76,0.00,,,-99.99,86.000000,,2013-07-27 00:22:00,
2013-07-26 20:32:00,81.0,73.0,-100.00,East,100,3.0,10.0,76,0.00,,,-99.99,86.000000,,2013-07-27 00:32:00,
2013-07-26 20:43:00,81.0,73.0,-100.00,East,100,3.0,10.0,76,0.00,,,-99.99,86.000000,,2013-07-27 00:43:00,
2013-07-26 20:53:00,81.0,73.0,-100.00,East,100,3.0,10.0,76,0.00,,,-99.99,86.000000,,2013-07-27 00:53:00,
2013-07-26 21:22:00,79.0,73.0,-100.00,East,79,3.0,7.0,82,0.00,,,0.05,5.000000,,2013-07-27 01:22:00,
2013-07-26 21:32:00,79.0,73.0,-100.00,East,79,3.0,7.0,82,0.00,,,0.05,5.000000,,2013-07-27 01:32:00,
2013-07-26 21:43:00,79.0,73.0,-100.00,East,79,3.0,7.0,82,0.00,,,0.05,5.000000,,2013-07-27 01:43:00,
2013-07-26 21:53:00,79.0,73.0,-100.00,East,79,3.0,7.0,82,0.00,,,0.05,5.000000,,2013-07-27 01:53:00,
2013-07-26 22:22:00,78.0,73.0,-100.00,East,81,3.0,6.0,85,0.00,,,0.05,0.000000,,2013-07-27 02:22:00,
2013-07-26 22:32:00,78.0,73.0,-100.00,East,81,3.0,6.0,85,0.00,,,0.05,0.000000,,2013-07-27 02:32:00,
2013-07-26 22:43:00,78.0,73.0,-100.00,East,81,3.0,6.0,85,0.00,,,0.05,0.000000,,2013-07-27 02:43:00,
2013-07-26 22:53:00,78.0,73.0,-100.00,East,81,3.0,6.0,85,0.00,,,0.05,0.000000,,2013-07-27 02:53:00,
2013-07-26 23:44:00,78.0,74.0,-100.00,ESE,112,1.0,6.0,87,0.00,,,0.05,0.000000,,2013-07-27 03:44:00,
2013-07-26 23:52:00,78.0,74.0,-100.00,ESE,112,1.0,6.0,87,0.00,,,0.05,0.000000,,2013-07-27 03:52:00,